WEATHER/FLIGHT PLANNING

Hattiesburg Radar

 

 

 

 

Weather Links

Flight Planning Links

 

METAR

2018/05/25 11:53 KHBG 251153Z AUTO 00000KT 10SM FEW110 22/21 A3003 RMK AO2 SLP166 70152 T02170211 10217 20206 53008

TAF

2018/05/25 12:46 TAF KHBG 251143Z 2512/2612 VRB03KT 6SM BR SCT002 FM251300 VRB03KT P6SM SCT025 SCT040 FM251700 VRB04KT P6SM VCTS SCT030 BKN050CB FM252000 VRB04KT P6SM -SHRA VCTS BKN035CB BKN060 FM260100 15003KT P6SM BKN100